Beale Air Force Base
KBAB : now visible

Airfield :











YOU CAN JOIN US ON...

 
LOGIN :

Register | Disclaimer

   EN    FR    IT 

 









Legend :    VFR   Marginal VFR   IFR   Intensive IFR   Very Intensive IFR
Visi :
Ceiling :
>= 8 km
>= 3000ft
5 to 8 km
1000 to 3000 ft
1500m to 5 km
500 to 1000 ft
800 to 1500m
200 to 500 ft
< 800m
< 200 ft
Symbols :   Thunderstorms  Fog  Heavy snow  Heavy precipitations  Wind > 20 kt







- Airport Elevation : 113 ft


KBAB - Beale Air Force Base

CURRENT METAR :
  • 162133Z 04009KT 010V100 10SM -TSRA SCT036 OVC060CB 22/13 A2991 RMK AO2A TSB30 SLP131 $

EXPIRED METARs :
  • 162058Z AUTO 12013KT 10SM VCTS FEW035 FEW043 SCT075 OVC095 23/14 A2989 RMK AO2 SLP124 T02250138 51011 $
  • 161958Z AUTO 13011KT 9SM FEW023 22/15 A2989 RMK AO2 SLP124 T02180151 $
  • 161858Z AUTO 13014KT 10SM SCT033 BKN070 21/16 A2988 RMK AO2 SLP121 T02080164 $

TAF TAF KBAB
Valid from the 16 at 19:00 until the 18 at 01:00 UTC


161900Z 1619/1801 20012KT 9999 VCSH BKN020 QNH2983INS
TEMPO 1619/1621 BKN018
BECMG 1702/1703 15009KT 9999 NSW BKN050 QNH2988INS
BECMG 1708/1709 08009KT 9999 SCT060 QNH2995INS
BECMG 1717/1718 26009KT 9999 FEW120 QNH2990INS TX25/1622Z TN14/1712Z
No reported NOTAMs for that airfield.



MET'MAP, your aeronautical weather chart ! - Copyright ORBIFLY December 2007 - Disclaimer

ORBIFLY MET'MAP TEAM :

Programming & Development : Alexandra Zaïnal
Concept & Development : Baudouin d'Aumeries
Co-Development & Prog : Marc-Olivier Méhu
Technical & hardware support : Manuel Goepfert

Contact : metmap@orbifly.com




SOURCES & CREDITS :

   NOAA       Earth
Advisory